createdAt,value
2023-05-01T00:01:30.654Z,94.54
2023-05-01T00:03:57.324Z,94.54
2023-05-01T00:06:24.164Z,94.77
2023-05-01T00:08:50.692Z,94.90
2023-05-01T00:11:17.386Z,95.21
2023-05-01T00:13:43.845Z,95.17
2023-05-01T00:16:11.476Z,95.07
2023-05-01T00:18:38.631Z,95.49
2023-05-01T00:21:05.537Z,95.51
2023-05-01T00:23:32.183Z,95.73
2023-05-01T00:25:58.711Z,95.01
2023-05-01T00:28:25.264Z,95.36
2023-05-01T00:30:52.224Z,95.24
2023-05-01T00:33:18.971Z,95.07
2023-05-01T00:35:46.249Z,95.04
2023-05-01T00:38:12.980Z,95.17
2023-05-01T00:40:43.829Z,95.71
2023-05-01T00:43:11.999Z,95.42
2023-05-01T00:45:39.951Z,96.22
2023-05-01T00:48:06.717Z,96.29
2023-05-01T00:50:33.389Z,96.30
2023-05-01T00:53:00.296Z,96.11
2023-05-01T00:55:27.117Z,96.54
2023-05-01T00:57:55.374Z,96.81
2023-05-01T01:00:24.495Z,96.63
2023-05-01T01:02:52.122Z,97.03
2023-05-01T01:05:21.829Z,97.05
2023-05-01T01:07:58.165Z,96.98
2023-05-01T01:10:35.450Z,97.64
2023-05-01T01:13:11.983Z,97.09
2023-05-01T01:15:50.767Z,96.77
2023-05-01T01:18:27.838Z,96.63
2023-05-01T01:21:18.927Z,96.67
2023-05-01T01:24:22.092Z,96.68
2023-05-01T01:27:07.115Z,96.83
2023-05-01T01:29:56.506Z,96.65
2023-05-01T01:32:53.869Z,97.00
2023-05-01T01:35:24.449Z,96.84
2023-05-01T01:38:07.559Z,97.40
2023-05-01T01:40:59.819Z,97.19
2023-05-01T01:43:27.481Z,97.30
2023-05-01T01:45:59.468Z,97.56
2023-05-01T01:48:31.784Z,97.68
2023-05-01T01:50:59.506Z,97.75
2023-05-01T01:53:28.495Z,98.16
2023-05-01T01:55:58.182Z,98.40
2023-05-01T01:58:26.819Z,98.31
2023-05-01T02:00:55.385Z,98.62
2023-05-01T02:03:24.262Z,98.56
2023-05-01T02:05:53.844Z,98.61
2023-05-01T02:08:21.344Z,98.40
2023-05-01T02:10:50.482Z,98.13
2023-05-01T02:13:18.348Z,98.56
2023-05-01T02:15:45.889Z,98.19
2023-05-01T02:18:13.989Z,98.69
2023-05-01T02:20:42.755Z,98.02
2023-05-01T02:23:10.068Z,98.19
2023-05-01T02:25:39.356Z,98.09
2023-05-01T02:28:13.549Z,98.35
2023-05-01T02:30:40.326Z,98.15
2023-05-01T02:33:08.520Z,98.36
2023-05-01T02:35:44.021Z,98.36
2023-05-01T02:38:12.803Z,98.21
2023-05-01T02:40:39.879Z,98.43
2023-05-01T02:43:10.736Z,98.30
2023-05-01T02:45:41.494Z,99.00
2023-05-01T02:48:10.973Z,98.65
2023-05-01T02:50:40.914Z,98.80
2023-05-01T02:53:08.395Z,98.67
2023-05-01T02:55:35.893Z,99.03
2023-05-01T02:58:02.485Z,98.93
2023-05-01T03:00:29.955Z,98.89
2023-05-01T03:02:56.625Z,98.78
2023-05-01T03:05:23.169Z,98.57
2023-05-01T03:07:51.239Z,98.34
2023-05-01T03:10:17.827Z,99.05
2023-05-01T03:12:44.414Z,99.09
2023-05-01T03:15:12.632Z,99.05
2023-05-01T03:17:39.694Z,99.26
2023-05-01T03:20:07.173Z,99.50
2023-05-01T03:22:33.720Z,99.40
2023-05-01T03:25:00.679Z,99.24
2023-05-01T03:27:27.539Z,99.42
2023-05-01T03:29:54.246Z,99.31
2023-05-01T03:32:21.017Z,99.22
2023-05-01T03:34:47.767Z,99.20
2023-05-01T03:37:15.143Z,99.18
2023-05-01T03:39:41.873Z,99.05
2023-05-01T03:42:08.345Z,99.20
2023-05-01T03:44:34.854Z,99.04
2023-05-01T03:47:01.837Z,99.22
2023-05-01T03:49:28.846Z,98.90
2023-05-01T03:51:55.342Z,99.16
2023-05-01T03:54:21.900Z,99.08
2023-05-01T03:56:48.375Z,99.53
2023-05-01T03:59:15.023Z,99.59
2023-05-01T04:01:41.621Z,99.79
2023-05-01T04:04:08.289Z,99.66
2023-05-01T04:06:35.323Z,99.57
2023-05-01T04:09:02.612Z,99.55
2023-05-01T04:11:29.115Z,99.80
2023-05-01T04:13:55.582Z,99.96
2023-05-01T04:16:22.158Z,99.54
2023-05-01T04:18:48.718Z,99.29
2023-05-01T04:21:17.674Z,99.25
2023-05-01T04:23:44.738Z,99.78
2023-05-01T04:26:11.221Z,99.32
2023-05-01T04:28:37.995Z,99.39
2023-05-01T04:31:04.574Z,99.19
2023-05-01T04:33:31.050Z,98.85
2023-05-01T04:35:57.549Z,99.20
2023-05-01T04:38:24.007Z,99.21
2023-05-01T04:40:50.677Z,99.47
2023-05-01T04:43:17.286Z,99.82
2023-05-01T04:45:43.739Z,100.00
2023-05-01T04:48:10.301Z,100.00
2023-05-01T04:50:37.649Z,99.36
2023-05-01T04:53:04.141Z,98.93
2023-05-01T04:55:31.229Z,98.75
2023-05-01T04:57:57.829Z,98.41
2023-05-01T05:00:24.392Z,97.67
2023-05-01T05:02:51.173Z,97.28
2023-05-01T05:05:17.696Z,96.51
2023-05-01T05:07:44.211Z,96.45
2023-05-01T05:10:10.805Z,96.10
2023-05-01T05:12:37.288Z,96.01
2023-05-01T05:15:03.946Z,96.25
2023-05-01T05:17:30.664Z,97.26
2023-05-01T05:19:57.382Z,95.50
2023-05-01T05:22:25.986Z,95.88
2023-05-01T05:24:59.994Z,96.46
2023-05-01T05:27:26.759Z,96.52
2023-05-01T05:29:53.369Z,95.18
2023-05-01T05:32:20.175Z,94.29
2023-05-01T05:34:47.458Z,94.11
2023-05-01T05:37:13.959Z,94.88
2023-05-01T05:39:40.502Z,93.96
2023-05-01T05:42:07.057Z,94.53
2023-05-01T05:44:35.988Z,93.11
2023-05-01T05:47:02.534Z,92.33
2023-05-01T05:49:29.143Z,93.25
2023-05-01T05:51:56.160Z,93.18
2023-05-01T05:54:22.685Z,91.01
2023-05-01T05:56:49.129Z,90.22
2023-05-01T05:59:17.391Z,90.04
2023-05-01T06:01:44.318Z,90.92
2023-05-01T06:04:11.922Z,91.52
2023-05-01T06:06:39.210Z,91.15
2023-05-01T06:09:08.232Z,91.72
2023-05-01T06:11:34.686Z,90.27
2023-05-01T06:14:02.775Z,87.44
2023-05-01T06:16:29.681Z,86.89
2023-05-01T06:18:56.431Z,86.38
2023-05-01T06:21:22.991Z,84.49
2023-05-01T06:23:49.461Z,85.83
2023-05-01T06:26:15.939Z,83.84
2023-05-01T06:28:42.425Z,81.88
2023-05-01T06:31:08.992Z,83.68
2023-05-01T06:33:35.549Z,83.23
2023-05-01T06:36:02.420Z,84.22
2023-05-01T06:38:28.980Z,82.63
2023-05-01T06:40:55.700Z,83.08
2023-05-01T06:43:22.218Z,82.78
2023-05-01T06:45:48.923Z,83.03
2023-05-01T06:48:15.495Z,81.71
2023-05-01T06:50:42.075Z,81.41
2023-05-01T06:53:08.582Z,81.09
2023-05-01T06:55:35.951Z,81.72
2023-05-01T06:58:04.856Z,80.43
2023-05-01T07:00:36.623Z,81.18
2023-05-01T07:03:04.094Z,80.66
2023-05-01T07:05:30.582Z,79.32
2023-05-01T07:08:01.331Z,78.95
2023-05-01T07:10:29.207Z,78.47
2023-05-01T07:12:55.696Z,78.13
2023-05-01T07:15:22.368Z,77.69
2023-05-01T07:17:50.446Z,77.86
2023-05-01T07:20:17.107Z,78.54
2023-05-01T07:22:44.228Z,79.29
2023-05-01T07:25:10.803Z,79.08
2023-05-01T07:27:37.315Z,77.34
2023-05-01T07:30:05.242Z,77.98
2023-05-01T07:32:33.128Z,77.80
2023-05-01T07:35:00.000Z,77.64
2023-05-01T07:37:27.071Z,77.13
2023-05-01T07:39:53.604Z,77.58
2023-05-01T07:42:20.152Z,76.26
2023-05-01T07:44:46.865Z,77.14
2023-05-01T07:47:13.525Z,77.23
2023-05-01T07:49:40.166Z,75.70
2023-05-01T07:52:09.706Z,76.50
2023-05-01T07:54:36.429Z,75.77
2023-05-01T07:57:03.674Z,77.83
2023-05-01T07:59:30.337Z,76.77
2023-05-01T08:01:56.975Z,76.70
2023-05-01T08:04:23.552Z,76.81
2023-05-01T08:06:51.533Z,77.24
2023-05-01T08:09:18.095Z,76.06
2023-05-01T08:11:44.620Z,76.25
2023-05-01T08:14:11.373Z,75.61
2023-05-01T08:16:38.173Z,75.60
2023-05-01T08:19:04.712Z,74.57
2023-05-01T08:21:31.381Z,74.82
2023-05-01T08:23:57.820Z,75.26
2023-05-01T08:26:24.329Z,74.67
2023-05-01T08:28:51.081Z,75.19
2023-05-01T08:31:19.302Z,75.00
2023-05-01T08:33:45.906Z,73.99
2023-05-01T08:36:12.624Z,75.28
2023-05-01T08:38:39.123Z,74.49
2023-05-01T08:41:06.180Z,75.04
2023-05-01T08:43:33.123Z,74.88
2023-05-01T08:46:04.906Z,74.85
2023-05-01T08:48:35.317Z,75.80
2023-05-01T08:51:03.566Z,74.62
2023-05-01T08:53:33.292Z,75.58
2023-05-01T08:56:00.578Z,75.28
2023-05-01T08:58:28.068Z,75.25
2023-05-01T09:00:57.488Z,73.90
2023-05-01T09:03:25.171Z,75.35
2023-05-01T09:05:53.425Z,73.38
2023-05-01T09:08:20.859Z,73.09
2023-05-01T09:10:49.422Z,71.75
2023-05-01T09:13:16.129Z,71.78
2023-05-01T09:15:42.676Z,72.39
2023-05-01T09:18:09.465Z,75.63
2023-05-01T09:20:37.921Z,75.29
2023-05-01T09:23:05.077Z,76.14
2023-05-01T09:25:31.543Z,74.17
2023-05-01T09:27:58.166Z,71.85
2023-05-01T09:30:35.392Z,70.83
2023-05-01T09:33:06.753Z,70.49
2023-05-01T09:35:47.863Z,70.65
2023-05-01T09:38:21.583Z,68.99
2023-05-01T09:40:48.614Z,68.66
2023-05-01T09:43:25.650Z,68.53
2023-05-01T09:46:10.483Z,68.96
2023-05-01T09:48:38.013Z,68.19
2023-05-01T09:51:20.696Z,67.40
2023-05-01T09:53:47.166Z,63.95
2023-05-01T09:56:14.867Z,65.69
2023-05-01T09:58:41.480Z,66.50
2023-05-01T10:01:08.645Z,64.23
2023-05-01T10:03:35.511Z,64.12
2023-05-01T10:06:03.887Z,63.02
2023-05-01T10:08:46.915Z,62.21
2023-05-01T10:11:13.538Z,65.01
2023-05-01T10:13:40.462Z,59.90
2023-05-01T10:16:08.526Z,61.48
2023-05-01T10:18:35.720Z,63.67
2023-05-01T10:21:03.532Z,61.29
2023-05-01T10:23:30.032Z,61.05
2023-05-01T10:25:58.595Z,59.13
2023-05-01T10:28:28.828Z,57.64
2023-05-01T10:30:57.493Z,60.01
2023-05-01T10:33:25.234Z,58.95
2023-05-01T10:36:00.789Z,58.36
2023-05-01T10:38:37.669Z,59.84
2023-05-01T10:41:06.228Z,58.74
2023-05-01T10:43:32.915Z,57.32
2023-05-01T10:46:09.238Z,55.99
2023-05-01T10:48:42.282Z,57.40
2023-05-01T10:51:15.647Z,58.50
2023-05-01T10:53:43.707Z,55.68
2023-05-01T10:56:26.473Z,55.63
2023-05-01T10:58:52.920Z,55.24
2023-05-01T11:01:29.471Z,55.27
2023-05-01T11:03:56.979Z,55.43
2023-05-01T11:06:24.157Z,54.94
2023-05-01T11:08:50.847Z,53.87
2023-05-01T11:11:20.071Z,56.56
2023-05-01T11:14:05.980Z,56.70
2023-05-01T11:16:42.112Z,53.87
2023-05-01T11:19:11.945Z,54.20
2023-05-01T11:21:40.660Z,56.14
2023-05-01T11:24:08.037Z,56.40
2023-05-01T11:26:41.732Z,56.04
2023-05-01T11:29:10.583Z,54.81
2023-05-01T11:31:38.174Z,56.44
2023-05-01T11:34:07.001Z,56.43
2023-05-01T11:36:52.392Z,57.30
2023-05-01T11:39:19.505Z,56.67
2023-05-01T11:41:46.968Z,58.68
2023-05-01T11:44:17.617Z,54.79
2023-05-01T11:46:44.523Z,54.21
2023-05-01T11:49:11.270Z,53.37
2023-05-01T11:51:37.846Z,55.23
2023-05-01T11:54:07.326Z,54.03
2023-05-01T11:56:35.397Z,52.93
2023-05-01T11:59:16.832Z,53.38
2023-05-01T12:01:47.037Z,53.31
2023-05-01T12:04:24.269Z,54.42
2023-05-01T12:06:51.270Z,53.25
2023-05-01T12:09:20.285Z,53.19
2023-05-01T12:11:52.399Z,54.54
2023-05-01T12:14:21.647Z,53.92
2023-05-01T12:16:48.600Z,54.94
2023-05-01T12:19:15.818Z,54.72
2023-05-01T12:21:42.554Z,55.07
2023-05-01T12:24:10.465Z,55.06
2023-05-01T12:26:37.808Z,57.04
2023-05-01T12:29:06.714Z,57.44
2023-05-01T12:31:33.991Z,58.27
2023-05-01T12:34:07.569Z,60.11
2023-05-01T12:36:36.078Z,60.58
2023-05-01T12:39:07.670Z,60.82
2023-05-01T12:41:36.709Z,61.26
2023-05-01T12:44:16.786Z,61.25
2023-05-01T12:46:44.667Z,62.23
2023-05-01T12:49:21.072Z,61.99
2023-05-01T12:51:52.203Z,63.18
2023-05-01T12:54:22.861Z,63.89
2023-05-01T12:56:55.005Z,64.21
2023-05-01T12:59:26.299Z,63.64
2023-05-01T13:02:07.447Z,64.59
2023-05-01T13:04:35.173Z,65.41
2023-05-01T13:07:02.651Z,64.58
2023-05-01T13:09:32.546Z,65.08
2023-05-01T13:12:05.901Z,66.84
2023-05-01T13:14:43.350Z,66.76
2023-05-01T13:17:11.767Z,65.63
2023-05-01T13:19:39.530Z,66.60
2023-05-01T13:22:06.536Z,66.53
2023-05-01T13:24:40.990Z,69.20
2023-05-01T13:27:11.842Z,68.29
2023-05-01T13:29:39.612Z,68.95
2023-05-01T13:32:10.036Z,71.63
2023-05-01T13:34:37.719Z,71.20
2023-05-01T13:37:04.147Z,72.69
2023-05-01T13:39:30.722Z,72.72
2023-05-01T13:41:57.156Z,69.69
2023-05-01T13:44:23.657Z,71.50
2023-05-01T13:46:50.355Z,68.74
2023-05-01T13:49:22.306Z,69.08
2023-05-01T13:51:48.894Z,66.55
2023-05-01T13:54:15.696Z,67.98
2023-05-01T13:56:42.271Z,66.61
2023-05-01T13:59:09.338Z,66.46
2023-05-01T14:01:46.254Z,65.60
2023-05-01T14:04:18.580Z,65.93
2023-05-01T14:06:47.057Z,67.97
2023-05-01T14:09:17.337Z,66.92
2023-05-01T14:11:46.805Z,65.18
2023-05-01T14:14:18.251Z,65.27
2023-05-01T14:16:49.147Z,66.17
2023-05-01T14:19:20.112Z,63.91
2023-05-01T14:21:47.017Z,63.47
2023-05-01T14:24:17.823Z,62.19
2023-05-01T14:26:47.780Z,61.39
2023-05-01T14:29:22.945Z,58.67
2023-05-01T14:31:49.581Z,59.71
2023-05-01T14:34:18.027Z,58.27
2023-05-01T14:36:44.560Z,55.83
2023-05-01T14:39:11.080Z,54.86
2023-05-01T14:41:42.300Z,53.56
2023-05-01T14:44:39.393Z,54.16
2023-05-01T14:47:09.487Z,50.64
2023-05-01T14:49:36.056Z,52.67
2023-05-01T14:52:02.726Z,50.81
2023-05-01T14:54:33.169Z,50.63
2023-05-01T14:57:03.756Z,50.10
2023-05-01T14:59:30.302Z,52.67
2023-05-01T15:01:57.097Z,54.49
2023-05-01T15:04:24.341Z,53.83
2023-05-01T15:06:50.934Z,56.47
2023-05-01T15:09:17.395Z,54.89
2023-05-01T15:11:43.840Z,56.97
2023-05-01T15:14:10.328Z,56.83
2023-05-01T15:16:37.446Z,58.03
2023-05-01T15:19:03.936Z,59.78
2023-05-01T15:21:31.651Z,59.23
2023-05-01T15:23:58.157Z,59.57
2023-05-01T15:26:24.757Z,59.77
2023-05-01T15:28:51.333Z,61.62
2023-05-01T15:31:19.314Z,63.32
2023-05-01T15:33:46.297Z,61.27
2023-05-01T15:36:13.259Z,60.72
2023-05-01T15:38:39.721Z,61.22
2023-05-01T15:41:06.172Z,61.48
2023-05-01T15:43:32.653Z,59.56
2023-05-01T15:45:59.835Z,60.76
2023-05-01T15:48:26.809Z,61.47
2023-05-01T15:50:53.278Z,63.09
2023-05-01T15:53:21.093Z,63.28
2023-05-01T15:55:47.588Z,62.39
2023-05-01T15:58:16.711Z,61.81
2023-05-01T16:00:47.058Z,62.41
2023-05-01T16:03:14.749Z,63.21
2023-05-01T16:05:45.665Z,62.82
2023-05-01T16:08:12.860Z,63.59
2023-05-01T16:10:40.582Z,64.16
2023-05-01T16:13:07.446Z,63.80
2023-05-01T16:15:34.447Z,65.01
2023-05-01T16:18:04.017Z,64.41
2023-05-01T16:20:35.579Z,64.09
2023-05-01T16:23:02.384Z,64.85
2023-05-01T16:25:28.932Z,63.85
2023-05-01T16:27:55.568Z,65.25
2023-05-01T16:30:24.600Z,64.60
2023-05-01T16:32:51.119Z,65.33
2023-05-01T16:35:18.343Z,64.86
2023-05-01T16:37:45.102Z,66.14
2023-05-01T16:40:16.841Z,67.05
2023-05-01T16:42:49.274Z,67.67
2023-05-01T16:45:15.898Z,68.43
2023-05-01T16:47:42.419Z,70.25
2023-05-01T16:50:09.970Z,69.62
2023-05-01T16:52:36.679Z,71.01
2023-05-01T16:55:03.716Z,70.07
2023-05-01T16:57:30.274Z,70.88
2023-05-01T16:59:56.908Z,70.47
2023-05-01T17:02:23.509Z,72.02
2023-05-01T17:04:50.067Z,71.15
2023-05-01T17:07:16.720Z,71.68
2023-05-01T17:09:43.219Z,72.26
2023-05-01T17:12:09.986Z,72.87
2023-05-01T17:14:36.456Z,73.20
2023-05-01T17:17:03.634Z,73.10
2023-05-01T17:19:31.581Z,72.75
2023-05-01T17:21:58.415Z,73.48
2023-05-01T17:24:25.750Z,73.76
2023-05-01T17:26:52.579Z,73.75
2023-05-01T17:29:19.043Z,74.17
2023-05-01T17:31:45.584Z,74.38
2023-05-01T17:34:12.063Z,74.69
2023-05-01T17:36:38.546Z,75.45
2023-05-01T17:39:05.135Z,75.58
2023-05-01T17:41:31.638Z,76.13
2023-05-01T17:43:58.143Z,75.35
2023-05-01T17:46:24.877Z,75.78
2023-05-01T17:48:51.438Z,72.59
2023-05-01T17:51:18.136Z,72.45
2023-05-01T17:53:44.623Z,72.47
2023-05-01T17:56:11.345Z,71.91
2023-05-01T17:58:38.052Z,71.98
2023-05-01T18:01:04.981Z,72.36
2023-05-01T18:03:32.747Z,71.71
2023-05-01T18:06:00.994Z,71.88
2023-05-01T18:08:27.575Z,73.06
2023-05-01T18:10:54.033Z,72.45
2023-05-01T18:13:27.541Z,72.50
2023-05-01T18:15:57.231Z,72.17
2023-05-01T18:18:23.975Z,72.61
2023-05-01T18:20:50.581Z,73.43
2023-05-01T18:23:20.174Z,75.03
2023-05-01T18:25:46.677Z,74.10
2023-05-01T18:28:13.685Z,74.62
2023-05-01T18:30:40.130Z,75.07
2023-05-01T18:33:06.698Z,75.73
2023-05-01T18:35:33.573Z,76.27
2023-05-01T18:38:00.028Z,77.50
2023-05-01T18:40:27.230Z,75.71
2023-05-01T18:42:53.812Z,76.49
2023-05-01T18:45:20.314Z,77.32
2023-05-01T18:47:46.939Z,77.52
2023-05-01T18:50:13.656Z,77.72
2023-05-01T18:52:41.740Z,77.86
2023-05-01T18:55:11.291Z,79.07
2023-05-01T18:57:37.958Z,78.45
2023-05-01T19:00:05.807Z,79.45
2023-05-01T19:02:32.321Z,79.15
2023-05-01T19:04:58.963Z,79.75
2023-05-01T19:07:26.514Z,80.23
2023-05-01T19:09:53.174Z,79.60
2023-05-01T19:12:19.630Z,80.06
2023-05-01T19:14:46.248Z,80.20
2023-05-01T19:17:12.704Z,81.14
2023-05-01T19:19:39.184Z,80.29
2023-05-01T19:22:06.326Z,80.30
2023-05-01T19:24:32.907Z,79.80
2023-05-01T19:26:59.466Z,79.18
2023-05-01T19:29:26.106Z,80.03
2023-05-01T19:31:52.684Z,79.44
2023-05-01T19:34:20.278Z,79.46
2023-05-01T19:36:46.822Z,79.28
2023-05-01T19:39:13.353Z,80.06
2023-05-01T19:41:39.856Z,80.43
2023-05-01T19:44:06.665Z,80.43
2023-05-01T19:46:33.230Z,81.45
2023-05-01T19:48:59.725Z,81.77
2023-05-01T19:51:26.575Z,82.10
2023-05-01T19:53:53.116Z,82.36
2023-05-01T19:56:19.588Z,82.97
2023-05-01T19:58:46.340Z,82.91
2023-05-01T20:01:13.182Z,83.29
2023-05-01T20:03:39.889Z,83.46
2023-05-01T20:06:07.514Z,83.65
2023-05-01T20:08:34.112Z,83.96
2023-05-01T20:11:01.761Z,84.45
2023-05-01T20:13:28.397Z,84.92
2023-05-01T20:15:55.320Z,85.77
2023-05-01T20:18:22.166Z,86.84
2023-05-01T20:20:48.759Z,87.42
2023-05-01T20:23:17.314Z,87.90
2023-05-01T20:25:43.888Z,88.29
2023-05-01T20:28:12.938Z,88.52
2023-05-01T20:30:41.081Z,89.08
2023-05-01T20:33:10.627Z,89.05
2023-05-01T20:35:37.643Z,89.81
2023-05-01T20:38:07.162Z,90.14
2023-05-01T20:40:33.824Z,90.41
2023-05-01T20:43:00.724Z,90.43
2023-05-01T20:45:29.073Z,90.20
2023-05-01T20:47:56.244Z,90.87
2023-05-01T20:50:23.213Z,90.55
2023-05-01T20:52:49.993Z,90.66
2023-05-01T20:55:16.578Z,91.40
2023-05-01T20:57:43.032Z,91.66
2023-05-01T21:00:10.088Z,91.63
2023-05-01T21:02:41.333Z,91.70
2023-05-01T21:05:10.278Z,92.02
2023-05-01T21:07:38.119Z,93.48
2023-05-01T21:10:10.314Z,93.93
2023-05-01T21:12:37.667Z,93.83
2023-05-01T21:15:04.779Z,94.32
2023-05-01T21:17:33.584Z,94.82
2023-05-01T21:20:00.432Z,94.97
2023-05-01T21:22:27.761Z,95.27
2023-05-01T21:24:56.695Z,96.09
2023-05-01T21:27:24.664Z,96.38
2023-05-01T21:30:02.332Z,96.66
2023-05-01T21:32:32.548Z,96.51
2023-05-01T21:35:02.646Z,96.44
2023-05-01T21:37:29.559Z,96.03
2023-05-01T21:39:59.546Z,96.24
2023-05-01T21:42:31.202Z,96.70
2023-05-01T21:44:59.308Z,95.71
2023-05-01T21:47:26.347Z,96.12
2023-05-01T21:49:56.864Z,96.09
2023-05-01T21:52:23.501Z,96.02
2023-05-01T21:54:50.166Z,96.16
2023-05-01T21:57:16.629Z,96.45
2023-05-01T21:59:45.011Z,96.94
2023-05-01T22:02:12.227Z,95.39
2023-05-01T22:04:38.931Z,94.96
2023-05-01T22:07:06.164Z,95.15
2023-05-01T22:09:33.257Z,94.33
2023-05-01T22:11:59.809Z,94.30
2023-05-01T22:14:33.603Z,94.44
2023-05-01T22:17:06.745Z,94.11
2023-05-01T22:19:33.343Z,93.39
2023-05-01T22:21:59.886Z,93.75
2023-05-01T22:24:26.399Z,93.50
2023-05-01T22:26:53.095Z,93.67
2023-05-01T22:29:19.536Z,93.99
2023-05-01T22:31:46.362Z,93.98
2023-05-01T22:34:12.938Z,93.97
2023-05-01T22:36:39.570Z,93.41
2023-05-01T22:39:06.092Z,93.49
2023-05-01T22:41:32.901Z,93.96
2023-05-01T22:43:59.365Z,94.19
2023-05-01T22:46:25.906Z,94.18
2023-05-01T22:48:52.547Z,94.57
2023-05-01T22:51:18.997Z,94.34
2023-05-01T22:53:45.470Z,94.65
2023-05-01T22:56:11.920Z,94.75
2023-05-01T22:58:38.566Z,94.88
2023-05-01T23:01:05.144Z,94.96
2023-05-01T23:03:33.184Z,95.04
2023-05-01T23:06:00.934Z,94.61
2023-05-01T23:08:28.197Z,94.52
2023-05-01T23:10:54.823Z,94.80
2023-05-01T23:13:23.388Z,95.56
2023-05-01T23:15:50.137Z,94.95
2023-05-01T23:18:30.034Z,95.86
2023-05-01T23:20:56.777Z,95.67
2023-05-01T23:23:29.660Z,95.74
2023-05-01T23:25:56.398Z,96.81
2023-05-01T23:28:24.924Z,96.70
2023-05-01T23:31:32.103Z,96.60
2023-05-01T23:34:02.176Z,96.85
2023-05-01T23:36:29.055Z,97.02
2023-05-01T23:38:55.796Z,97.59
2023-05-01T23:41:24.521Z,98.09
2023-05-01T23:43:51.202Z,97.83
2023-05-01T23:46:17.796Z,98.40
2023-05-01T23:48:44.395Z,98.77
2023-05-01T23:51:10.998Z,98.50
2023-05-01T23:53:37.484Z,99.10
2023-05-01T23:56:04.205Z,98.65
2023-05-01T23:58:30.673Z,98.87
